Time;durP1;ratioP1;P1;durP2;ratioP2;P2;SDS_P1;SDS_P2;PMS_P1;PMS_P2;Temp;Humidity;BMP_temperature;BMP_pressure;BME280_temperature;BME280_humidity;BME280_pressure;Samples;Min_cycle;Max_cycle;Signal;HPM_P1;HPM_P2
2021/04/25 15:47:33;;;;;;;9.07;6.10;;;;;;;16.96;42.88;94591.34;5106752;27;1206614;-81
2021/04/25 15:50:00;;;;;;;5.43;4.57;;;;;;;16.81;43.03;94583.06;5107188;28;20035;-82
2021/04/25 15:52:26;;;;;;;6.75;4.63;;;;;;;16.65;43.14;94583.66;5080157;28;20027;-84
2021/04/25 15:54:52;;;;;;;11.57;5.05;;;;;;;16.57;43.74;94589.16;5069455;28;20043;-77
2021/04/25 15:57:17;;;;;;;6.45;5.57;;;;;;;16.50;43.77;94591.03;5103681;28;20024;-83
2021/04/25 15:59:43;;;;;;;9.35;5.80;;;;;;;16.62;44.13;94581.47;5070040;28;20047;-82
2021/04/25 16:02:09;;;;;;;4.75;3.85;;;;;;;16.30;44.02;94581.53;5088308;28;20031;-83
2021/04/25 16:04:35;;;;;;;6.40;5.03;;;;;;;16.34;43.94;94585.31;5107961;28;20028;-81
2021/04/25 16:07:00;;;;;;;5.57;4.57;;;;;;;16.31;44.04;94584.97;5084178;28;20945;-85
2021/04/25 16:09:26;;;;;;;8.07;4.85;;;;;;;16.37;44.40;94585.91;5072213;28;20023;-81
2021/04/25 16:11:51;;;;;;;5.57;4.70;;;;;;;16.27;44.66;94589.81;5089780;28;20530;-80
2021/04/25 16:14:17;;;;;;;8.35;5.07;;;;;;;16.04;44.90;94575.72;5101445;28;20019;-80
2021/04/25 16:16:42;;;;;;;7.68;5.22;;;;;;;16.03;45.55;94581.97;5090747;28;20028;-82
2021/04/25 16:19:11;;;;;;;4.47;4.07;;;;;;;15.80;45.60;94590.38;5088990;28;20027;-83
2021/04/25 16:21:36;;;;;;;5.47;4.45;;;;;;;15.78;45.84;94579.34;5083261;28;20024;-84
2021/04/25 16:24:02;;;;;;;6.07;4.63;;;;;;;15.68;46.10;94587.63;5102291;28;20102;-80
2021/04/25 16:26:29;;;;;;;8.75;5.32;;;;;;;15.63;46.10;94587.50;5100758;28;20051;-87
2021/04/25 16:28:55;;;;;;;5.97;5.15;;;;;;;15.51;46.39;94588.38;5080032;28;20043;-77
2021/04/25 16:31:21;;;;;;;6.55;4.25;;;;;;;15.45;46.58;94589.16;5087436;28;20028;-78
2021/04/25 16:33:46;;;;;;;7.03;4.95;;;;;;;15.38;46.88;94591.03;5090412;28;20031;-81
2021/04/25 16:36:11;;;;;;;6.55;5.90;;;;;;;15.32;47.74;94596.03;5062793;28;20035;-80
2021/04/25 16:38:37;;;;;;;6.57;5.72;;;;;;;15.25;47.77;94597.88;5106302;28;20031;-80
2021/04/25 16:41:03;;;;;;;6.82;4.80;;;;;;;15.15;47.89;94602.75;5061555;28;20384;-84
2021/04/25 16:43:29;;;;;;;8.60;5.45;;;;;;;15.10;48.44;94610.41;5092343;28;20028;-77
2021/04/25 16:45:54;;;;;;;9.13;6.00;;;;;;;15.02;48.54;94607.22;5103267;28;20055;-79
2021/04/25 16:48:19;;;;;;;7.32;5.78;;;;;;;14.91;49.13;94615.69;5086211;28;20486;-78
2021/04/25 16:50:45;;;;;;;11.07;6.07;;;;;;;14.84;49.18;94617.50;5082483;28;20034;-78
2021/04/25 16:53:13;;;;;;;6.53;5.50;;;;;;;14.74;49.55;94608.31;5102843;28;20500;-81
2021/04/25 16:55:41;;;;;;;7.32;6.25;;;;;;;14.65;49.83;94616.53;5102890;28;20476;-79
2021/04/25 16:58:07;;;;;;;8.88;6.15;;;;;;;14.47;50.66;94616.38;5085696;28;20032;-83
2021/04/25 17:00:32;;;;;;;7.20;6.47;;;;;;;14.40;50.90;94620.78;5090514;28;20065;-79
2021/04/25 17:02:57;;;;;;;7.53;6.43;;;;;;;14.35;50.99;94623.22;5087341;28;20412;-80
2021/04/25 17:05:23;;;;;;;9.43;5.75;;;;;;;14.23;51.51;94621.19;5069034;28;20020;-80
2021/04/25 17:07:48;;;;;;;6.13;5.50;;;;;;;14.18;51.27;94626.19;5073557;28;20028;-79
2021/04/25 17:10:15;;;;;;;10.65;5.95;;;;;;;14.00;52.24;94630.41;5072266;28;20144;-78
2021/04/25 17:12:41;;;;;;;6.68;5.38;;;;;;;13.93;52.29;94637.41;5082279;28;20492;-79
2021/04/25 17:15:07;;;;;;;9.95;5.80;;;;;;;13.95;51.96;94643.19;5088513;28;20035;-81
2021/04/25 17:17:32;;;;;;;5.78;5.28;;;;;;;13.87;52.18;94653.81;5109654;28;20116;-80
2021/04/25 17:19:58;;;;;;;6.07;5.47;;;;;;;13.77;52.90;94653.41;5083970;28;20488;-79
2021/04/25 17:22:24;;;;;;;7.03;6.07;;;;;;;13.65;52.85;94650.56;5090683;28;20042;-79
2021/04/25 17:24:50;;;;;;;7.63;5.72;;;;;;;13.47;53.95;94658.13;5069881;28;20050;-78
2021/04/25 17:27:17;;;;;;;7.25;6.40;;;;;;;13.42;54.21;94656.09;5061341;28;20036;-78
2021/04/25 17:29:42;;;;;;;6.68;5.68;;;;;;;13.41;53.95;94658.91;5082676;28;20027;-77
2021/04/25 17:32:08;;;;;;;6.47;5.57;;;;;;;13.19;54.84;94663.44;5061442;28;20069;-78
2021/04/25 17:34:33;;;;;;;8.90;5.78;;;;;;;12.98;56.33;94673.88;5062560;28;20524;-78
2021/04/25 17:36:59;;;;;;;9.38;5.72;;;;;;;12.94;55.83;94676.06;5051922;28;20024;-79
2021/04/25 17:39:24;;;;;;;10.82;6.50;;;;;;;12.86;55.99;94668.44;5072826;28;20035;-76
2021/04/25 17:41:50;;;;;;;7.90;6.68;;;;;;;12.91;55.63;94663.44;5061698;28;20012;-77
2021/04/25 17:44:15;;;;;;;9.18;6.80;;;;;;;12.95;55.77;94672.47;5089330;28;20386;-75
2021/04/25 17:46:44;;;;;;;7.53;6.80;;;;;;;12.93;55.84;94684.06;5083129;28;20044;-76
2021/04/25 17:49:11;;;;;;;10.02;6.60;;;;;;;12.82;56.23;94676.78;5062221;28;20020;-75
2021/04/25 17:51:36;;;;;;;7.97;6.82;;;;;;;12.73;56.19;94677.94;5066314;28;20024;-76
2021/04/25 17:54:02;;;;;;;7.10;6.32;;;;;;;12.69;56.61;94682.69;5081804;28;20081;-75
2021/04/25 17:56:28;;;;;;;8.23;6.85;;;;;;;12.61;56.46;94686.28;5064699;28;20026;-76
2021/04/25 17:58:53;;;;;;;7.00;6.40;;;;;;;12.65;56.48;94694.47;5084618;28;20020;-76
2021/04/25 18:01:19;;;;;;;7.00;6.32;;;;;;;12.65;56.28;94697.06;5069784;28;20500;-77
2021/04/25 18:03:44;;;;;;;10.30;8.55;;;;;;;12.51;57.03;94718.75;5069015;28;20036;-76
2021/04/25 18:06:10;;;;;;;8.23;6.10;;;;;;;12.43;57.29;94729.25;5032704;28;20036;-76
2021/04/25 18:08:36;;;;;;;10.05;6.85;;;;;;;12.30;58.05;94731.75;5065720;28;20021;-77
2021/04/25 18:11:01;;;;;;;7.32;6.47;;;;;;;12.36;57.50;94729.22;5079230;28;20472;-76
2021/04/25 18:13:27;;;;;;;9.10;6.35;;;;;;;12.32;57.54;94732.38;5066581;28;20440;-75
2021/04/25 18:15:52;;;;;;;6.97;6.38;;;;;;;12.15;58.75;94734.41;5068150;28;20169;-76
2021/04/25 18:18:18;;;;;;;9.27;6.57;;;;;;;11.98;59.16;94730.44;5081434;28;20036;-78
2021/04/25 18:20:44;;;;;;;8.23;6.60;;;;;;;11.94;59.15;94739.63;5084617;28;20019;-76
2021/04/25 18:23:11;;;;;;;6.45;5.85;;;;;;;11.84;59.37;94729.53;5068828;28;20481;-77
2021/04/25 18:25:36;;;;;;;8.73;6.03;;;;;;;11.76;59.30;94734.81;5081799;28;20125;-76
2021/04/25 18:28:02;;;;;;;7.78;6.25;;;;;;;11.71;59.31;94744.94;5086078;28;20078;-76
2021/04/25 18:30:29;;;;;;;6.32;5.70;;;;;;;11.62;59.58;94741.63;5051384;28;20028;-75
2021/04/25 18:32:58;;;;;;;7.95;5.82;;;;;;;11.65;59.14;94748.25;5083799;28;20127;-81
2021/04/25 18:35:24;;;;;;;9.87;5.60;;;;;;;11.69;59.37;94746.88;5073356;28;20035;-79
2021/04/25 18:37:50;;;;;;;8.15;6.30;;;;;;;11.52;59.57;94745.50;5081508;28;20028;-78
2021/04/25 18:40:19;;;;;;;10.07;5.60;;;;;;;11.45;59.41;94748.00;5084439;28;20487;-79
2021/04/25 18:42:45;;;;;;;9.10;5.72;;;;;;;11.42;59.58;94755.34;5105157;28;20039;-80
2021/04/25 18:45:11;;;;;;;8.73;5.22;;;;;;;11.17;60.47;94762.59;5098551;28;20093;-78
2021/04/25 18:47:36;;;;;;;5.93;5.30;;;;;;;11.29;59.40;94770.72;5064589;28;20048;-76
2021/04/25 18:50:02;;;;;;;7.85;4.47;;;;;;;11.50;57.83;94763.00;5060063;28;20351;-79
2021/04/25 18:52:28;;;;;;;5.28;4.78;;;;;;;11.52;57.55;94769.66;5047906;28;20036;-83
2021/04/25 18:54:53;;;;;;;5.20;4.72;;;;;;;11.50;57.45;94774.19;5050926;28;20031;-77
2021/04/25 18:57:19;;;;;;;10.68;5.20;;;;;;;11.28;58.77;94776.88;5086878;28;20497;-78
2021/04/25 18:59:44;;;;;;;6.78;4.82;;;;;;;11.19;59.09;94777.97;5080648;28;20035;-82
2021/04/25 19:02:10;;;;;;;7.03;4.70;;;;;;;11.25;59.15;94769.47;5065643;28;20032;-78
2021/04/25 19:04:36;;;;;;;11.07;4.93;;;;;;;11.25;58.72;94774.66;5035974;28;20035;-78
2021/04/25 19:07:02;;;;;;;12.02;4.38;;;;;;;11.19;58.73;94780.56;5046091;28;20032;-78
2021/04/25 19:09:27;;;;;;;7.75;4.95;;;;;;;11.20;58.58;94782.97;5086876;28;20035;-80
2021/04/25 19:11:53;;;;;;;9.18;4.63;;;;;;;11.37;58.20;94781.00;5068470;28;20027;-79
2021/04/25 19:14:18;;;;;;;5.00;4.35;;;;;;;11.40;57.56;94775.44;5086575;28;20587;-78
2021/04/25 19:16:44;;;;;;;9.68;5.10;;;;;;;11.37;58.46;94784.38;5071963;28;20512;-78
2021/04/25 19:19:09;;;;;;;7.82;4.85;;;;;;;11.29;58.46;94788.88;5103915;28;20020;-78
2021/04/25 19:21:35;;;;;;;6.28;5.32;;;;;;;11.19;59.03;94793.50;5062470;28;20042;-79
2021/04/25 19:24:01;;;;;;;9.23;5.10;;;;;;;11.00;60.18;94795.66;5053149;28;20028;-77
2021/04/25 19:26:27;;;;;;;8.77;4.85;;;;;;;10.90;60.26;94800.28;5086132;28;20396;-78
2021/04/25 19:28:52;;;;;;;6.57;4.88;;;;;;;10.78;60.63;94804.28;5080807;28;20036;-78
2021/04/25 19:31:19;;;;;;;8.05;4.93;;;;;;;10.76;60.77;94808.00;5086203;28;20020;-78
2021/04/25 19:33:45;;;;;;;6.18;5.57;;;;;;;10.39;62.97;94812.22;5084660;28;20061;-78
2021/04/25 19:36:11;;;;;;;7.50;4.78;;;;;;;10.77;60.81;94810.44;5081773;28;20058;-78
2021/04/25 19:38:37;;;;;;;6.07;5.20;;;;;;;10.68;60.89;94803.72;5086372;28;20313;-76
2021/04/25 19:41:02;;;;;;;6.57;5.45;;;;;;;10.54;61.96;94814.84;5086093;28;20108;-77
2021/04/25 19:43:28;;;;;;;6.95;5.45;;;;;;;10.49;61.98;94811.97;5079560;28;20409;-79
2021/04/25 19:45:53;;;;;;;6.40;5.10;;;;;;;10.66;61.45;94813.44;5101769;28;20044;-79
2021/04/25 19:48:20;;;;;;;6.25;5.57;;;;;;;10.62;61.33;94819.97;5069161;28;20077;-80
2021/04/25 19:50:56;;;;;;;7.10;5.82;;;;;;;10.47;61.53;94819.91;5059426;28;20458;-81
2021/04/25 19:53:25;;;;;;;7.10;5.38;;;;;;;10.21;62.96;94816.06;5067817;28;20425;-81
2021/04/25 19:55:50;;;;;;;10.52;5.72;;;;;;;10.24;62.97;94821.66;5048524;28;20062;-78
2021/04/25 19:58:16;;;;;;;6.57;5.30;;;;;;;10.57;61.05;94820.47;5062376;28;20074;-77
2021/04/25 20:00:44;;;;;;;7.70;4.85;;;;;;;10.59;60.48;94815.91;5086082;28;20047;-78
2021/04/25 20:03:10;;;;;;;5.63;4.80;;;;;;;10.37;61.94;94816.72;5068988;28;20031;-77
2021/04/25 20:05:37;;;;;;;7.32;5.00;;;;;;;10.27;61.88;94823.94;5080784;28;20032;-78
2021/04/25 20:08:03;;;;;;;5.93;4.68;;;;;;;10.24;62.01;94816.50;5068128;28;20099;-80
2021/04/25 20:10:29;;;;;;;7.00;4.60;;;;;;;10.08;62.65;94824.34;5086488;28;20051;-79
2021/04/25 20:12:54;;;;;;;6.53;5.55;;;;;;;9.91;63.63;94821.06;5080342;28;20028;-78
2021/04/25 20:15:22;;;;;;;7.93;5.25;;;;;;;9.91;62.90;94812.47;5086545;28;20077;-77
2021/04/25 20:17:48;;;;;;;6.75;4.95;;;;;;;9.87;63.26;94814.59;5065539;28;20024;-78
2021/04/25 20:20:14;;;;;;;4.93;4.53;;;;;;;9.91;62.26;94815.88;5064006;28;20032;-77
2021/04/25 20:22:40;;;;;;;5.88;4.63;;;;;;;9.87;62.64;94817.19;5084465;28;20016;-76
2021/04/25 20:25:08;;;;;;;5.85;4.05;;;;;;;9.78;63.10;94813.03;5066086;28;20082;-77
2021/04/25 20:27:33;;;;;;;7.88;4.10;;;;;;;9.71;63.51;94806.91;5080288;28;20489;-77
2021/04/25 20:29:59;;;;;;;5.28;4.65;;;;;;;9.65;63.26;94809.38;5064298;28;20100;-78
2021/04/25 20:32:24;;;;;;;5.63;4.70;;;;;;;9.71;62.66;94806.91;5087608;28;20020;-79
2021/04/25 20:34:50;;;;;;;5.45;3.97;;;;;;;9.67;63.07;94799.66;5083177;28;20028;-78
2021/04/25 20:37:15;;;;;;;6.35;3.60;;;;;;;9.56;63.14;94807.78;5089810;28;20534;-77
2021/04/25 20:39:41;;;;;;;10.60;4.30;;;;;;;9.61;62.91;94801.13;5088469;28;20477;-80
2021/04/25 20:42:07;;;;;;;5.78;4.30;;;;;;;9.56;62.81;94806.03;5067730;28;20031;-80
2021/04/25 20:44:33;;;;;;;5.88;3.67;;;;;;;9.53;63.17;94806.38;5105506;28;20081;-77
2021/04/25 20:46:58;;;;;;;5.43;3.95;;;;;;;9.49;62.99;94805.06;5087714;28;20416;-78
2021/04/25 20:49:24;;;;;;;7.38;4.15;;;;;;;9.66;61.74;94803.22;5067951;28;20028;-77
2021/04/25 20:51:50;;;;;;;7.28;5.32;;;;;;;9.67;61.45;94815.16;5071123;28;20396;-78
2021/04/25 20:54:17;;;;;;;4.30;3.90;;;;;;;9.56;62.10;94813.78;5089030;28;20065;-78
2021/04/25 20:56:42;;;;;;;4.25;3.08;;;;;;;9.51;61.84;94809.09;5099668;28;20020;-77
2021/04/25 20:59:08;;;;;;;5.88;3.65;;;;;;;9.63;61.32;94811.31;5089629;28;20182;-78
2021/04/25 21:01:33;;;;;;;6.03;3.95;;;;;;;9.48;62.83;94812.03;5068075;28;20437;-77
2021/04/25 21:03:59;;;;;;;7.32;4.25;;;;;;;9.22;64.39;94787.38;5084609;28;20554;-78
2021/04/25 21:06:24;;;;;;;5.22;3.80;;;;;;;9.17;63.96;94812.94;5089229;28;20269;-76
2021/04/25 21:08:50;;;;;;;5.07;3.38;;;;;;;9.44;61.66;94804.75;5070328;28;20028;-76
2021/04/25 21:11:17;;;;;;;4.60;3.47;;;;;;;9.45;61.76;94811.53;5047876;28;20067;-77
2021/04/25 21:13:42;;;;;;;3.88;3.15;;;;;;;9.57;61.06;94817.94;5066950;28;20035;-77
2021/04/25 21:16:08;;;;;;;4.47;3.33;;;;;;;9.61;60.20;94808.09;5052039;28;20040;-77
2021/04/25 21:18:33;;;;;;;4.65;3.03;;;;;;;9.40;61.48;94812.06;5064297;28;20658;-77
2021/04/25 21:20:59;;;;;;;3.08;2.88;;;;;;;9.38;61.99;94808.00;5051405;28;20079;-76
2021/04/25 21:23:24;;;;;;;5.78;2.80;;;;;;;9.48;61.14;94814.59;5068491;28;20033;-76
2021/04/25 21:25:50;;;;;;;4.95;3.38;;;;;;;9.43;60.55;94810.91;5084654;28;20511;-76
2021/04/25 21:28:15;;;;;;;3.67;2.92;;;;;;;9.31;61.48;94812.25;5088336;28;20024;-76
2021/04/25 21:30:41;;;;;;;7.32;4.53;;;;;;;9.30;61.67;94815.81;5067750;28;20508;-75
2021/04/25 21:33:06;;;;;;;4.65;3.17;;;;;;;9.20;61.77;94817.75;5052060;28;20463;-76
2021/04/25 21:35:31;;;;;;;4.20;2.50;;;;;;;9.55;59.54;94819.91;5086885;28;20017;-77
2021/04/25 21:37:57;;;;;;;3.13;2.58;;;;;;;9.48;59.81;94824.13;5085199;28;20028;-78
2021/04/25 21:40:22;;;;;;;6.60;3.03;;;;;;;9.63;58.81;94824.25;5067805;28;20039;-77
2021/04/25 21:42:48;;;;;;;3.50;2.97;;;;;;;9.73;58.54;94832.63;5086961;28;20105;-77
2021/04/25 21:45:26;;;;;;;5.20;2.92;;;;;;;9.88;57.95;94826.56;5068339;28;20043;-78
2021/04/25 21:47:52;;;;;;;4.65;2.42;;;;;;;9.81;57.82;94824.81;5086391;28;20047;-77
2021/04/25 21:50:17;;;;;;;5.70;3.70;;;;;;;9.79;58.79;94835.31;5071558;28;20020;-76
2021/04/25 21:52:43;;;;;;;4.45;3.47;;;;;;;9.60;58.86;94829.75;5046834;28;20052;-77
2021/04/25 21:55:09;;;;;;;3.85;2.72;;;;;;;9.57;59.07;94837.84;5088091;28;20398;-76
2021/04/25 21:57:34;;;;;;;3.85;2.97;;;;;;;9.53;58.48;94833.00;5070321;28;20035;-77
2021/04/25 21:59:59;;;;;;;3.45;2.60;;;;;;;9.53;58.05;94835.56;5065806;28;20051;-78
